»·PEaware :: N190FT KLAS-KLAS

N190FT :: KLAS-KLAS

FLIGHT INFORMATION

Flight Status: Arrived
Operator: Privately registered:
United States
More flights under this callsign
Pilot: Manhattan Flying Club (7137)
Aircraft: PIPER PA-28R-201 ARROW
(P28R)
More flights by this aircraft type
Origin: KLAS McCarran Intl
United States
Destination: KLAS McCarran Intl
United States
More flights between these airports :: More routes between these airports
Route: +LAS
File this flight plan on PilotEdge
Remarks:
Altitude:
(Current/Filed)
5,000ft
Speed:
(Current/Filed)
135kts
Departed: 03-Jan-18 02:33 PM
Arrived: 03-Jan-18 02:53 PM
Distance/Time
Traveled:
1nm/0:20
Distance/Time
To Go:
Arrived

Flight Plot

Page will automatically refresh every two minutes.


Map Options




Map Legend


Flown Route
Filed Route
Departure Airport
Arrival Airport
Navaid (VOR, NDB)
Fix

Horizontal Profiles

Position Reports

Time Latitude Longitude Heading Altitude Ground
Speed
03-Jan-18 13:52 36.086264 -115.157747 88 2144ft 0kts
03-Jan-18 13:53 36.086264 -115.157747 88 2144ft 0kts
03-Jan-18 13:54 36.086264 -115.157747 88 2144ft 0kts
03-Jan-18 13:55 36.086264 -115.157747 88 2144ft 0kts
03-Jan-18 13:56 36.086264 -115.157747 88 2144ft 0kts
03-Jan-18 13:57 36.086264 -115.157747 88 2144ft 0kts
03-Jan-18 13:58 36.086264 -115.157747 88 2144ft 0kts
03-Jan-18 13:59 36.086264 -115.157747 88 2144ft 0kts
03-Jan-18 14:00 36.086264 -115.157747 88 2144ft 0kts
03-Jan-18 14:01 36.086264 -115.157747 88 2144ft 0kts
03-Jan-18 14:02 36.086264 -115.157747 88 2144ft 0kts
03-Jan-18 14:03 36.086264 -115.157747 88 2144ft 0kts
03-Jan-18 14:04 36.086264 -115.157747 88 2144ft 0kts
03-Jan-18 14:05 36.082572 -115.129553 90 2144ft 0kts
03-Jan-18 14:06 36.082572 -115.129553 90 2144ft 0kts
03-Jan-18 14:07 36.082572 -115.129553 90 2144ft 0kts
03-Jan-18 14:08 36.082572 -115.129553 90 2144ft 0kts
03-Jan-18 14:09 36.082572 -115.129553 90 2144ft 0kts
03-Jan-18 14:10 36.082572 -115.129553 90 2144ft 0kts
03-Jan-18 14:11 36.082572 -115.129553 90 2144ft 0kts
03-Jan-18 14:12 36.082572 -115.129553 90 2144ft 0kts
03-Jan-18 14:13 36.082572 -115.129553 90 2144ft 0kts
03-Jan-18 14:14 36.082572 -115.129553 90 2144ft 0kts
03-Jan-18 14:15 36.082572 -115.129553 90 2144ft 0kts
03-Jan-18 14:16 36.082572 -115.129553 90 2144ft 0kts
03-Jan-18 14:17 36.082572 -115.129553 90 2144ft 0kts
03-Jan-18 14:18 36.082572 -115.129553 90 2144ft 0kts
03-Jan-18 14:19 36.082572 -115.129553 90 2144ft 0kts
03-Jan-18 14:20 36.082572 -115.129553 90 2144ft 0kts
03-Jan-18 14:21 36.082572 -115.129553 90 2144ft 0kts
03-Jan-18 14:22 36.082572 -115.129553 90 2144ft 0kts
03-Jan-18 14:23 36.082572 -115.129553 90 2144ft 0kts
03-Jan-18 14:24 36.082572 -115.129553 90 2144ft 0kts
03-Jan-18 14:25 36.082572 -115.129553 90 2144ft 0kts
03-Jan-18 14:26 36.082572 -115.129553 90 2144ft 0kts
03-Jan-18 14:27 36.082572 -115.129553 90 2144ft 0kts
03-Jan-18 14:28 36.082572 -115.129553 90 2144ft 0kts
03-Jan-18 14:29 36.082577 -115.129314 87 2144ft 4kts
03-Jan-18 14:30 36.080653 -115.129915 224 2144ft 2kts
03-Jan-18 14:31 36.079361 -115.130286 174 2144ft 10kts
03-Jan-18 14:32 36.079156 -115.130285 179 2144ft 0kts
03-Jan-18 14:33 36.079156 -115.130285 179 2144ft 0kts
03-Jan-18 14:34 36.079143 -115.130285 179 2144ft 0kts
03-Jan-18 14:35 36.078256 -115.124991 89 2144ft 17kts
03-Jan-18 14:36 36.077346 -115.121408 154 2144ft 0kts
03-Jan-18 14:37 36.077346 -115.121408 154 2144ft 0kts
03-Jan-18 14:38 36.076410 -115.121971 267 2144ft 20kts
03-Jan-18 14:39 36.077535 -115.147666 276 3032ft 95kts
03-Jan-18 14:40 36.066463 -115.174647 193 4375ft 98kts
03-Jan-18 14:41 36.038475 -115.185705 195 5293ft 126kts
03-Jan-18 14:42 35.997305 -115.194280 184 5122ft 148kts
03-Jan-18 14:43 35.959702 -115.196366 181 5948ft 127kts
03-Jan-18 14:44 35.924769 -115.203482 195 6749ft 124kts
03-Jan-18 14:45 35.890506 -115.220630 207 7102ft 143kts
03-Jan-18 14:46 35.852148 -115.236090 195 7024ft 148kts
03-Jan-18 14:47 35.813170 -115.251358 198 6979ft 145kts
03-Jan-18 14:48 35.776060 -115.266453 211 7129ft 141kts
03-Jan-18 14:49 35.779170 -115.301501 359 7201ft 143kts
03-Jan-18 14:50 35.821228 -115.303884 358 6677ft 164kts
03-Jan-18 14:51 35.863446 -115.295854 37 5914ft 155kts
03-Jan-18 14:52 35.899302 -115.267461 21 4965ft 158kts
03-Jan-18 14:53 35.938315 -115.248153 21 4517ft 129kts
03-Jan-18 14:54 35.969530 -115.231168 24 4755ft 113kts
03-Jan-18 14:55 35.997107 -115.213862 30 4209ft 112kts
03-Jan-18 14:56 36.026085 -115.198480 25 3508ft 109kts
03-Jan-18 14:57 36.054773 -115.182640 25 2702ft 119kts
03-Jan-18 14:58 36.078979 -115.168270 23 2152ft 76kts
03-Jan-18 14:59 36.088829 -115.162306 86 2144ft 16kts
03-Jan-18 15:00 36.088635 -115.161580 115 2144ft 0kts
03-Jan-18 15:01 36.088635 -115.161580 115 2144ft 0kts
03-Jan-18 15:02 36.088635 -115.161580 115 2144ft 0kts
03-Jan-18 15:03 36.088635 -115.161580 115 2144ft 0kts
03-Jan-18 15:04 36.088635 -115.161580 115 2144ft 0kts
03-Jan-18 15:05 36.088635 -115.161580 115 2144ft 0kts
03-Jan-18 15:06 36.088635 -115.161580 115 2144ft 0kts
03-Jan-18 15:07 36.088635 -115.161580 115 2144ft 0kts
03-Jan-18 15:08 36.088635 -115.161580 115 2144ft 0kts
03-Jan-18 15:09 36.088635 -115.161580 115 2144ft 0kts
03-Jan-18 15:10 36.082578 -115.129563 90 2144ft 0kts
03-Jan-18 15:11 36.082578 -115.129563 90 2144ft 0kts
03-Jan-18 15:12 36.082578 -115.129563 90 2144ft 0kts
03-Jan-18 15:13 36.082578 -115.129563 90 2144ft 0kts

Navigation Log

Ident Type
1. KLAS Airport
2. LAS Navaid
3. KLAS Airport